createdAt,value
2018-06-16T00:01:04.176Z,5.90
2018-06-16T00:03:32.822Z,9.10
2018-06-16T00:06:01.453Z,7.43
2018-06-16T00:08:30.090Z,9.93
2018-06-16T00:10:58.686Z,8.70
2018-06-16T00:13:27.295Z,6.30
2018-06-16T00:15:55.932Z,10.17
2018-06-16T00:18:24.582Z,6.80
2018-06-16T00:20:53.522Z,6.77
2018-06-16T00:23:22.145Z,6.53
2018-06-16T00:25:50.770Z,6.57
2018-06-16T00:28:19.401Z,5.57
2018-06-16T00:30:48.025Z,7.83
2018-06-16T00:33:16.792Z,9.07
2018-06-16T00:35:45.363Z,9.93
2018-06-16T00:38:13.979Z,8.30
2018-06-16T00:40:42.629Z,9.03
2018-06-16T00:43:11.265Z,9.17
2018-06-16T00:45:39.867Z,8.97
2018-06-16T00:48:08.485Z,10.43
2018-06-16T00:50:37.089Z,8.30
2018-06-16T00:53:05.769Z,11.60
2018-06-16T00:55:34.359Z,9.23
2018-06-16T00:58:02.989Z,8.50
2018-06-16T01:00:31.654Z,11.83
2018-06-16T01:03:00.392Z,8.07
2018-06-16T01:05:29.040Z,8.40
2018-06-16T01:07:57.676Z,7.33
2018-06-16T01:10:26.294Z,7.77
2018-06-16T01:12:54.900Z,8.50
2018-06-16T01:15:23.480Z,10.10
2018-06-16T01:17:52.152Z,9.40
2018-06-16T01:20:20.782Z,9.80
2018-06-16T01:22:49.395Z,8.93
2018-06-16T01:25:17.986Z,8.00
2018-06-16T01:27:46.597Z,6.83
2018-06-16T01:30:15.270Z,6.27
2018-06-16T01:32:43.870Z,6.47
2018-06-16T01:35:12.488Z,9.70
2018-06-16T01:37:41.069Z,9.23
2018-06-16T01:40:09.718Z,8.63
2018-06-16T01:42:38.352Z,8.27
2018-06-16T01:45:07.016Z,8.03
2018-06-16T01:47:35.816Z,10.80
2018-06-16T01:50:04.464Z,9.73
2018-06-16T01:52:33.086Z,8.90
2018-06-16T01:55:01.722Z,8.77
2018-06-16T01:57:30.356Z,9.13
2018-06-16T01:59:59.165Z,8.40
2018-06-16T02:02:27.785Z,7.40
2018-06-16T02:04:56.381Z,5.60
2018-06-16T02:07:25.004Z,8.33
2018-06-16T02:09:54.059Z,10.00
2018-06-16T02:12:22.820Z,11.87
2018-06-16T02:14:51.406Z,8.63
2018-06-16T02:17:20.028Z,8.73
2018-06-16T02:19:48.660Z,8.60
2018-06-16T02:22:17.322Z,8.53
2018-06-16T02:24:45.940Z,10.67
2018-06-16T02:27:14.576Z,6.57
2018-06-16T02:29:43.210Z,6.50
2018-06-16T02:32:11.893Z,10.27
2018-06-16T02:34:40.560Z,9.77
2018-06-16T02:37:09.205Z,7.50
2018-06-16T02:39:37.859Z,8.67
2018-06-16T02:42:06.479Z,8.47
2018-06-16T02:44:35.158Z,8.17
2018-06-16T02:47:03.794Z,7.73
2018-06-16T02:49:32.566Z,6.93
2018-06-16T02:52:01.167Z,8.10
2018-06-16T02:54:29.776Z,8.47
2018-06-16T02:56:58.400Z,8.87
2018-06-16T02:59:26.988Z,7.30
2018-06-16T03:01:55.821Z,10.70
2018-06-16T03:04:24.462Z,6.73
2018-06-16T03:06:53.082Z,6.87
2018-06-16T03:09:21.771Z,9.33
2018-06-16T03:11:50.358Z,13.37
2018-06-16T03:14:19.144Z,10.83
2018-06-16T03:16:47.787Z,6.97
2018-06-16T03:19:16.396Z,9.20
2018-06-16T03:21:45.005Z,7.93
2018-06-16T03:24:13.610Z,8.80
2018-06-16T03:26:42.252Z,9.07
2018-06-16T03:29:10.876Z,10.43
2018-06-16T03:31:39.500Z,8.93
2018-06-16T03:34:08.142Z,10.37
2018-06-16T03:36:36.763Z,9.83
2018-06-16T03:39:06.948Z,6.20
2018-06-16T03:41:35.604Z,7.77
2018-06-16T03:44:05.002Z,10.13
2018-06-16T03:46:33.651Z,8.77
2018-06-16T03:49:02.336Z,8.63
2018-06-16T03:51:30.983Z,7.07
2018-06-16T03:53:59.641Z,6.97
2018-06-16T03:56:28.326Z,7.40
2018-06-16T03:58:56.949Z,6.57
2018-06-16T04:01:25.536Z,9.27
2018-06-16T04:03:54.187Z,8.47
2018-06-16T04:06:22.848Z,7.90
2018-06-16T04:08:51.471Z,10.50
2018-06-16T04:11:20.113Z,8.87
2018-06-16T04:13:48.741Z,10.83
2018-06-16T04:16:17.376Z,8.67
2018-06-16T04:18:46.019Z,8.13
2018-06-16T04:21:14.604Z,9.07
2018-06-16T04:23:43.208Z,10.03
2018-06-16T04:26:11.813Z,9.23
2018-06-16T04:28:40.463Z,10.10
2018-06-16T04:31:09.089Z,11.77
2018-06-16T04:33:37.704Z,14.50
2018-06-16T04:36:06.529Z,10.47
2018-06-16T04:38:35.193Z,8.13
2018-06-16T04:41:03.814Z,9.53
2018-06-16T04:43:32.440Z,8.93
2018-06-16T04:46:01.024Z,21.27
2018-06-16T04:48:29.710Z,10.23
2018-06-16T04:50:58.336Z,8.13
2018-06-16T04:53:26.976Z,10.83
2018-06-16T04:55:55.591Z,10.43
2018-06-16T04:58:24.261Z,12.63
2018-06-16T05:00:52.913Z,7.93
2018-06-16T05:03:21.591Z,10.90
2018-06-16T05:05:50.213Z,7.83
2018-06-16T05:08:18.953Z,9.27
2018-06-16T05:10:47.653Z,8.73
2018-06-16T05:13:16.325Z,8.97
2018-06-16T05:15:44.946Z,10.37
2018-06-16T05:18:13.559Z,10.47
2018-06-16T05:20:42.191Z,10.30
2018-06-16T05:23:10.779Z,11.17
2018-06-16T05:25:40.647Z,15.27
2018-06-16T05:28:09.402Z,14.30
2018-06-16T05:30:38.042Z,11.57
2018-06-16T05:33:06.937Z,11.77
2018-06-16T05:35:35.534Z,13.63
2018-06-16T05:38:04.178Z,11.60
2018-06-16T05:40:32.777Z,12.53
2018-06-16T05:43:01.404Z,9.47
2018-06-16T05:45:30.595Z,9.90
2018-06-16T05:47:59.212Z,10.93
2018-06-16T05:50:28.443Z,12.90
2018-06-16T05:52:57.042Z,12.17
2018-06-16T05:55:25.747Z,16.37
2018-06-16T05:57:54.367Z,11.70
2018-06-16T06:00:22.955Z,11.37
2018-06-16T06:02:51.577Z,12.73
2018-06-16T06:05:20.231Z,10.47
2018-06-16T06:07:49.060Z,14.63
2018-06-16T06:10:18.522Z,12.10
2018-06-16T06:12:47.332Z,10.63
2018-06-16T06:15:15.976Z,9.50
2018-06-16T06:17:44.597Z,12.03
2018-06-16T06:20:13.224Z,11.07
2018-06-16T06:22:41.831Z,15.13
2018-06-16T06:25:10.460Z,13.30
2018-06-16T06:27:39.102Z,13.07
2018-06-16T06:30:07.757Z,11.80
2018-06-16T06:32:36.362Z,13.70
2018-06-16T06:35:04.998Z,13.63
2018-06-16T06:37:33.615Z,11.67
2018-06-16T06:40:02.288Z,18.63
2018-06-16T06:42:30.874Z,14.50
2018-06-16T06:44:59.507Z,12.73
2018-06-16T06:47:28.115Z,20.23
2018-06-16T06:49:56.764Z,15.60
2018-06-16T06:52:25.481Z,18.23
2018-06-16T06:54:54.396Z,16.67
2018-06-16T06:57:23.019Z,19.23
2018-06-16T06:59:51.617Z,23.37
2018-06-16T07:02:20.220Z,24.67
2018-06-16T07:04:48.931Z,19.80
2018-06-16T07:07:17.538Z,20.33
2018-06-16T07:09:46.175Z,21.83
2018-06-16T07:12:14.780Z,19.23
2018-06-16T07:14:49.768Z,25.80
2018-06-16T07:17:18.395Z,28.27
2018-06-16T07:19:47.029Z,27.27
2018-06-16T07:22:15.656Z,30.00
2018-06-16T07:24:44.275Z,30.97
2018-06-16T07:27:12.982Z,31.20
2018-06-16T07:29:41.561Z,32.20
2018-06-16T07:32:10.299Z,31.73
2018-06-16T07:34:38.924Z,34.63
2018-06-16T07:37:07.543Z,33.77
2018-06-16T07:39:36.212Z,32.17
2018-06-16T07:42:04.867Z,27.30
2018-06-16T07:44:33.484Z,31.97
2018-06-16T07:47:02.171Z,30.27
2018-06-16T07:49:30.805Z,36.47
2018-06-16T07:51:59.445Z,37.17
2018-06-16T07:54:28.088Z,30.23
2018-06-16T07:56:56.799Z,24.67
2018-06-16T07:59:25.577Z,25.33
2018-06-16T08:01:54.225Z,27.00
2018-06-16T08:04:22.869Z,27.53
2018-06-16T08:06:51.455Z,24.90
2018-06-16T08:09:20.094Z,30.13
2018-06-16T08:11:48.729Z,23.93
2018-06-16T08:14:17.349Z,30.37
2018-06-16T08:16:45.985Z,29.93
2018-06-16T08:19:14.609Z,22.23
2018-06-16T08:21:43.291Z,26.50
2018-06-16T08:24:11.900Z,35.97
2018-06-16T08:26:40.506Z,28.63
2018-06-16T08:29:09.153Z,26.73
2018-06-16T08:31:37.787Z,34.70
2018-06-16T08:34:06.416Z,30.90
2018-06-16T08:36:35.022Z,26.57
2018-06-16T08:39:03.985Z,33.73
2018-06-16T08:41:32.620Z,34.67
2018-06-16T08:44:01.237Z,30.87
2018-06-16T08:46:29.841Z,33.60
2018-06-16T08:48:58.472Z,33.87
2018-06-16T08:51:27.104Z,31.27
2018-06-16T08:53:55.732Z,35.83
2018-06-16T08:56:24.454Z,28.40
2018-06-16T08:58:53.102Z,35.27
2018-06-16T09:01:21.783Z,33.83
2018-06-16T09:03:50.541Z,34.97
2018-06-16T09:06:20.013Z,34.53
2018-06-16T09:08:48.629Z,38.90
2018-06-16T09:11:17.286Z,30.50
2018-06-16T09:13:45.922Z,29.03
2018-06-16T09:16:14.537Z,38.47
2018-06-16T09:18:43.211Z,24.13
2018-06-16T09:21:11.816Z,27.30
2018-06-16T09:23:40.422Z,31.77
2018-06-16T09:26:09.060Z,26.83
2018-06-16T09:28:37.635Z,27.57
2018-06-16T09:31:06.567Z,22.63
2018-06-16T09:33:35.210Z,29.80
2018-06-16T09:36:03.865Z,35.60
2018-06-16T09:38:32.506Z,26.57
2018-06-16T09:41:01.113Z,33.50
2018-06-16T09:43:29.753Z,32.30
2018-06-16T09:45:58.388Z,28.70
2018-06-16T09:48:26.997Z,35.33
2018-06-16T09:50:55.627Z,27.40
2018-06-16T09:53:24.210Z,24.73
2018-06-16T09:55:52.962Z,26.20
2018-06-16T09:58:21.551Z,28.40
2018-06-16T10:00:50.197Z,25.23
2018-06-16T10:03:18.875Z,18.30
2018-06-16T10:05:47.454Z,22.20
2018-06-16T10:08:16.077Z,21.23
2018-06-16T10:10:44.735Z,20.30
2018-06-16T10:13:13.356Z,23.90
2018-06-16T10:15:42.085Z,18.80
2018-06-16T10:18:10.737Z,21.13
2018-06-16T10:20:39.375Z,19.07
2018-06-16T10:23:07.976Z,20.17
2018-06-16T10:25:36.578Z,16.00
2018-06-16T10:28:05.216Z,20.57
2018-06-16T10:30:34.712Z,14.87
2018-06-16T10:33:03.361Z,13.63
2018-06-16T10:35:31.951Z,14.77
2018-06-16T10:38:00.545Z,17.03
2018-06-16T10:40:29.156Z,10.83
2018-06-16T10:42:57.795Z,12.73
2018-06-16T10:45:26.474Z,17.57
2018-06-16T10:47:55.080Z,13.13
2018-06-16T10:50:23.686Z,13.47
2018-06-16T10:52:52.420Z,11.83
2018-06-16T10:55:21.052Z,7.90
2018-06-16T10:57:49.745Z,10.57
2018-06-16T11:00:18.319Z,15.13
2018-06-16T11:02:46.933Z,11.77
2018-06-16T11:05:15.563Z,14.20
2018-06-16T11:07:44.171Z,10.43
2018-06-16T11:10:12.879Z,12.00
2018-06-16T11:12:41.475Z,10.40
2018-06-16T11:15:10.106Z,11.50
2018-06-16T11:17:38.718Z,14.30
2018-06-16T11:20:07.329Z,14.20
2018-06-16T11:22:35.990Z,12.93
2018-06-16T11:25:04.613Z,15.30
2018-06-16T11:27:33.298Z,10.80
2018-06-16T11:30:01.898Z,13.73
2018-06-16T11:32:30.481Z,9.30
2018-06-16T11:34:59.128Z,13.80
2018-06-16T11:37:27.884Z,10.47
2018-06-16T11:39:56.505Z,11.43
2018-06-16T11:42:25.115Z,16.47
2018-06-16T11:44:53.701Z,12.73
2018-06-16T11:47:22.347Z,7.60
2018-06-16T11:49:50.941Z,8.33
2018-06-16T11:52:19.601Z,10.17
2018-06-16T11:54:48.961Z,6.87
2018-06-16T11:57:17.812Z,8.97
2018-06-16T11:59:50.553Z,9.83
2018-06-16T12:05:15.686Z,11.10
2018-06-16T12:07:44.337Z,8.13
2018-06-16T12:10:13.013Z,6.83
2018-06-16T12:12:42.005Z,13.43
2018-06-16T12:15:10.637Z,9.07
2018-06-16T12:17:39.312Z,8.00
2018-06-16T12:20:07.965Z,9.50
2018-06-16T12:22:36.613Z,17.77
2018-06-16T12:25:05.278Z,7.43
2018-06-16T12:27:33.930Z,10.33
2018-06-16T12:30:02.712Z,7.73
2018-06-16T12:32:31.447Z,4.93
2018-06-16T12:35:00.091Z,6.33
2018-06-16T12:37:28.738Z,10.60
2018-06-16T12:39:57.383Z,8.73
2018-06-16T12:42:26.064Z,7.37
2018-06-16T12:44:54.745Z,4.87
2018-06-16T12:47:23.390Z,6.50
2018-06-16T12:49:52.084Z,11.20
2018-06-16T12:52:20.700Z,9.23
2018-06-16T12:54:49.328Z,8.43
2018-06-16T12:57:18.064Z,6.93
2018-06-16T12:59:46.709Z,8.90
2018-06-16T13:02:15.368Z,8.97
2018-06-16T13:04:44.077Z,7.67
2018-06-16T13:07:13.047Z,9.53
2018-06-16T13:09:41.732Z,12.73
2018-06-16T13:12:10.417Z,8.23
2018-06-16T13:14:39.085Z,12.17
2018-06-16T13:17:07.717Z,6.90
2018-06-16T13:19:36.356Z,8.93
2018-06-16T13:22:05.063Z,9.87
2018-06-16T13:24:33.867Z,23.60
2018-06-16T13:27:02.613Z,8.10
2018-06-16T13:29:31.287Z,11.00
2018-06-16T13:31:59.948Z,7.27
2018-06-16T13:34:28.680Z,13.70
2018-06-16T13:36:57.381Z,7.83
2018-06-16T13:39:26.104Z,11.40
2018-06-16T13:41:54.761Z,10.50
2018-06-16T13:44:23.420Z,11.77
2018-06-16T13:46:52.088Z,12.03
2018-06-16T13:49:20.733Z,5.90
2018-06-16T13:51:49.408Z,13.17
2018-06-16T13:54:18.971Z,8.63
2018-06-16T13:56:47.694Z,6.20
2018-06-16T13:59:16.298Z,11.23
2018-06-16T14:01:44.905Z,7.37
2018-06-16T14:04:13.651Z,7.73
2018-06-16T14:06:42.343Z,7.10
2018-06-16T14:09:11.366Z,7.73
2018-06-16T14:11:39.988Z,8.63
2018-06-16T14:14:08.636Z,9.33
2018-06-16T14:16:37.260Z,9.93
2018-06-16T14:19:05.883Z,6.70
2018-06-16T14:21:34.509Z,9.90
2018-06-16T14:24:03.147Z,11.50
2018-06-16T14:26:31.780Z,7.70
2018-06-16T14:29:00.420Z,6.33
2018-06-16T14:31:29.051Z,8.77
2018-06-16T14:33:57.688Z,2.97
2018-06-16T14:36:26.299Z,5.80
2018-06-16T14:38:54.964Z,8.37
2018-06-16T14:41:23.688Z,8.63
2018-06-16T14:43:52.358Z,9.90
2018-06-16T14:46:20.968Z,8.37
2018-06-16T14:48:49.599Z,5.97
2018-06-16T14:51:18.243Z,5.87
2018-06-16T14:53:46.872Z,4.97
2018-06-16T14:56:15.480Z,8.97
2018-06-16T14:58:44.104Z,7.97
2018-06-16T15:01:12.765Z,8.97
2018-06-16T15:03:41.388Z,7.67
2018-06-16T15:06:09.976Z,8.13
2018-06-16T15:08:38.572Z,5.90
2018-06-16T15:11:07.184Z,7.10
2018-06-16T15:13:35.823Z,7.43
2018-06-16T15:16:04.456Z,5.90
2018-06-16T15:18:33.089Z,7.17
2018-06-16T15:21:01.728Z,4.77
2018-06-16T15:23:30.363Z,6.17
2018-06-16T15:25:58.990Z,4.97
2018-06-16T15:28:27.593Z,7.50
2018-06-16T15:30:56.214Z,6.87
2018-06-16T15:33:24.883Z,8.93
2018-06-16T15:35:53.615Z,7.43
2018-06-16T15:38:22.240Z,5.23
2018-06-16T15:40:50.910Z,6.83
2018-06-16T15:43:19.550Z,5.63
2018-06-16T15:45:48.138Z,5.70
2018-06-16T15:48:16.807Z,6.57
2018-06-16T15:50:45.394Z,8.43
2018-06-16T15:53:14.016Z,6.17
2018-06-16T15:55:42.686Z,8.60
2018-06-16T15:58:11.309Z,5.73
2018-06-16T16:00:39.949Z,8.27
2018-06-16T16:03:08.621Z,7.03
2018-06-16T16:05:37.371Z,8.43
2018-06-16T16:08:06.195Z,6.03
2018-06-16T16:10:34.887Z,6.77
2018-06-16T16:13:03.844Z,8.77
2018-06-16T16:15:32.439Z,9.07
2018-06-16T16:18:01.070Z,8.07
2018-06-16T16:20:29.718Z,10.77
2018-06-16T16:22:58.341Z,8.33
2018-06-16T16:25:26.964Z,8.73
2018-06-16T16:27:55.559Z,8.30
2018-06-16T16:30:24.224Z,5.67
2018-06-16T16:32:52.841Z,7.80
2018-06-16T16:35:21.448Z,11.23
2018-06-16T16:37:50.074Z,4.93
2018-06-16T16:40:18.751Z,7.60
2018-06-16T16:42:47.396Z,5.47
2018-06-16T16:45:22.726Z,10.13
2018-06-16T16:47:51.586Z,5.83
2018-06-16T16:50:20.460Z,3.33
2018-06-16T16:52:49.095Z,5.07
2018-06-16T16:55:17.706Z,7.00
2018-06-16T16:57:46.338Z,6.00
2018-06-16T17:00:15.238Z,7.10
2018-06-16T17:02:43.952Z,4.07
2018-06-16T17:05:12.571Z,9.00
2018-06-16T17:07:41.211Z,5.77
2018-06-16T17:10:09.864Z,5.97
2018-06-16T17:12:38.530Z,6.67
2018-06-16T17:15:07.180Z,3.93
2018-06-16T17:17:36.710Z,6.50
2018-06-16T17:20:06.337Z,9.40
2018-06-16T17:22:35.017Z,7.60
2018-06-16T17:25:03.675Z,11.23
2018-06-16T17:27:32.336Z,9.83
2018-06-16T17:30:01.016Z,5.90
2018-06-16T17:32:29.667Z,6.53
2018-06-16T17:34:58.321Z,10.27
2018-06-16T17:37:26.967Z,9.07
2018-06-16T17:39:55.588Z,7.93
2018-06-16T17:42:24.534Z,10.67
2018-06-16T17:44:53.225Z,8.40
2018-06-16T17:47:21.841Z,9.67
2018-06-16T17:49:50.459Z,12.30
2018-06-16T17:52:19.165Z,10.77
2018-06-16T17:54:47.786Z,10.30
2018-06-16T17:57:16.394Z,7.90
2018-06-16T17:59:45.052Z,8.50
2018-06-16T18:02:13.714Z,9.07
2018-06-16T18:04:42.517Z,10.10
2018-06-16T18:07:11.147Z,12.57
2018-06-16T18:09:39.781Z,9.37
2018-06-16T18:12:08.392Z,10.03
2018-06-16T18:14:37.024Z,9.10
2018-06-16T18:17:05.723Z,10.83
2018-06-16T18:19:34.386Z,11.23
2018-06-16T18:22:03.061Z,7.53
2018-06-16T18:24:31.702Z,9.23
2018-06-16T18:27:00.376Z,6.90
2018-06-16T18:29:28.980Z,8.30
2018-06-16T18:31:59.762Z,7.67
2018-06-16T18:34:28.407Z,9.17
2018-06-16T18:39:55.652Z,7.33
2018-06-16T18:42:24.264Z,11.63
2018-06-16T18:44:52.991Z,11.33
2018-06-16T18:47:21.705Z,12.83
2018-06-16T18:49:50.376Z,8.53
2018-06-16T18:52:19.064Z,11.47
2018-06-16T18:54:47.732Z,8.13
2018-06-16T18:57:16.382Z,10.83
2018-06-16T18:59:45.068Z,9.43
2018-06-16T19:02:13.931Z,9.83
2018-06-16T19:04:42.670Z,8.63
2018-06-16T19:07:11.632Z,11.80
2018-06-16T19:09:40.301Z,11.90
2018-06-16T19:12:09.202Z,8.83
2018-06-16T19:14:38.151Z,13.33
2018-06-16T19:17:07.188Z,7.50
2018-06-16T19:19:36.069Z,12.67
2018-06-16T19:22:04.936Z,12.97
2018-06-16T19:24:33.871Z,12.00
2018-06-16T19:27:02.897Z,14.57
2018-06-16T19:29:31.853Z,10.83
2018-06-16T19:32:01.134Z,14.63
2018-06-16T19:34:30.201Z,13.53
2018-06-16T19:36:59.334Z,9.50
2018-06-16T19:39:28.278Z,9.47
2018-06-16T19:47:43.336Z,13.73
2018-06-16T19:50:12.029Z,13.20
2018-06-16T19:52:41.147Z,10.87
2018-06-16T19:55:09.932Z,10.83
2018-06-16T19:57:38.584Z,10.63
2018-06-16T20:00:07.573Z,11.67
2018-06-16T20:02:36.275Z,12.50
2018-06-16T20:05:05.059Z,9.97
2018-06-16T20:07:33.825Z,13.10
2018-06-16T20:10:03.898Z,9.67
2018-06-16T20:12:33.143Z,11.07
2018-06-16T20:15:03.276Z,16.93
2018-06-16T20:17:34.880Z,14.30
2018-06-16T20:20:03.972Z,12.77
2018-06-16T20:22:32.926Z,12.43
2018-06-16T20:25:02.021Z,13.33
2018-06-16T20:27:31.174Z,12.47
2018-06-16T20:30:00.112Z,13.87
2018-06-16T20:32:29.161Z,12.53
2018-06-16T20:34:58.209Z,11.30
2018-06-16T20:37:27.195Z,8.83
2018-06-16T20:39:57.080Z,8.57
2018-06-16T20:42:26.128Z,11.80
2018-06-16T20:44:55.051Z,11.23
2018-06-16T20:47:24.011Z,13.37
2018-06-16T20:49:52.842Z,8.00
2018-06-16T20:52:21.721Z,8.00
2018-06-16T20:54:50.635Z,8.40
2018-06-16T21:03:12.326Z,11.50
2018-06-16T21:05:43.829Z,14.93
2018-06-16T21:08:18.034Z,14.90
2018-06-16T21:10:50.784Z,10.73
2018-06-16T21:16:14.225Z,14.13
2018-06-16T21:18:44.640Z,14.13
2018-06-16T21:21:18.229Z,19.37
2018-06-16T21:23:49.196Z,13.43
2018-06-16T21:26:22.159Z,16.20
2018-06-16T21:28:57.529Z,15.80
2018-06-16T21:31:29.660Z,16.57
2018-06-16T21:34:01.317Z,17.67
2018-06-16T21:36:30.275Z,15.20
2018-06-16T21:38:59.820Z,13.50
2018-06-16T21:41:28.833Z,13.67
2018-06-16T21:43:57.847Z,16.60
2018-06-16T21:46:26.628Z,16.53
2018-06-16T21:48:55.447Z,16.67
2018-06-16T21:51:24.062Z,21.93
2018-06-16T21:53:52.789Z,23.97
2018-06-16T21:56:21.564Z,16.17
2018-06-16T21:58:50.215Z,15.37
2018-06-16T22:01:18.896Z,15.50
2018-06-16T22:03:47.565Z,16.77
2018-06-16T22:06:16.207Z,19.67
2018-06-16T22:08:44.884Z,16.53
2018-06-16T22:11:13.546Z,16.23
2018-06-16T22:13:42.272Z,17.00
2018-06-16T22:16:10.924Z,15.43
2018-06-16T22:18:39.566Z,22.50
2018-06-16T22:21:08.232Z,18.63
2018-06-16T22:23:36.939Z,17.53
2018-06-16T22:26:05.714Z,18.10
2018-06-16T22:28:34.349Z,16.80
2018-06-16T22:31:03.066Z,15.77
2018-06-16T22:33:31.671Z,17.90
2018-06-16T22:36:01.415Z,14.87
2018-06-16T22:38:30.009Z,17.13
2018-06-16T22:40:58.797Z,15.00
2018-06-16T22:43:27.452Z,17.80
2018-06-16T22:45:56.120Z,18.17
2018-06-16T22:48:24.778Z,14.67
2018-06-16T22:50:53.399Z,18.60
2018-06-16T22:53:22.008Z,11.70
2018-06-16T22:55:50.646Z,15.30
2018-06-16T22:58:19.295Z,13.27
2018-06-16T23:00:47.978Z,16.37
2018-06-16T23:03:16.561Z,15.13
2018-06-16T23:05:45.193Z,10.73
2018-06-16T23:08:13.776Z,12.20
2018-06-16T23:10:42.398Z,14.13
2018-06-16T23:13:10.999Z,11.90
2018-06-16T23:15:40.891Z,13.03
2018-06-16T23:18:09.528Z,11.40
2018-06-16T23:20:38.154Z,11.13
2018-06-16T23:23:06.726Z,15.10
2018-06-16T23:25:35.353Z,13.00
2018-06-16T23:28:03.929Z,13.37
2018-06-16T23:30:32.602Z,11.90
2018-06-16T23:33:01.264Z,17.23
2018-06-16T23:35:30.292Z,12.30
2018-06-16T23:37:58.998Z,11.57
2018-06-16T23:40:27.655Z,18.47
2018-06-16T23:42:57.294Z,14.13
2018-06-16T23:45:25.951Z,17.73
2018-06-16T23:47:54.639Z,14.43
2018-06-16T23:50:23.323Z,14.97
2018-06-16T23:52:51.946Z,14.90
2018-06-16T23:55:20.610Z,14.10
2018-06-16T23:57:49.203Z,20.03
